Terminal Aerodrome Forecast
Issued by NWS Amarillo, TX

Home | Current Version | Previous Version | Text Only | Print | Product List | Glossary On
Versions: 1 2 3 4 5 6 7 8 9 10 11 12
133
FTUS44 KAMA 231720
TAFGUY
TAF
KGUY 231720Z 2318/2418 35007KT P6SM BKN250
     FM232300 21007KT P6SM SCT250=

USA.gov is the U.S. government's official web portal to all federal, state and local government web resources and services.